createdAt,value
2022-09-07T00:00:53.469Z,26.41
2022-09-07T00:03:21.379Z,26.41
2022-09-07T00:05:51.361Z,26.40
2022-09-07T00:08:21.373Z,26.42
2022-09-07T00:11:00.242Z,26.41
2022-09-07T00:13:30.652Z,26.42
2022-09-07T00:15:58.643Z,26.41
2022-09-07T00:18:26.209Z,26.40
2022-09-07T00:21:01.803Z,26.41
2022-09-07T00:23:30.697Z,26.41
2022-09-07T00:26:02.781Z,26.42
2022-09-07T00:28:30.984Z,26.41
2022-09-07T00:30:58.855Z,26.41
2022-09-07T00:33:26.335Z,26.41
2022-09-07T00:35:54.013Z,26.42
2022-09-07T00:38:21.506Z,26.41
2022-09-07T00:40:48.799Z,26.42
2022-09-07T00:43:29.086Z,26.40
2022-09-07T00:45:56.422Z,26.41
2022-09-07T00:48:29.275Z,26.41
2022-09-07T00:51:01.984Z,26.41
2022-09-07T00:53:38.383Z,26.41
2022-09-07T00:56:06.685Z,26.41
2022-09-07T00:58:36.215Z,26.42
2022-09-07T01:01:03.939Z,26.41
2022-09-07T01:03:36.723Z,26.42
2022-09-07T01:06:17.327Z,26.40
2022-09-07T01:08:46.411Z,26.40
2022-09-07T01:11:13.696Z,26.40
2022-09-07T01:13:43.507Z,26.39
2022-09-07T01:16:26.540Z,26.41
2022-09-07T01:19:24.584Z,26.40
2022-09-07T01:22:04.067Z,26.39
2022-09-07T01:24:41.434Z,26.40
2022-09-07T01:27:36.517Z,26.39
2022-09-07T01:30:08.435Z,26.41
2022-09-07T01:32:43.240Z,26.40
2022-09-07T01:35:33.984Z,26.41
2022-09-07T01:38:15.583Z,26.39
2022-09-07T01:40:55.102Z,26.39
2022-09-07T01:43:49.888Z,26.40
2022-09-07T01:46:40.028Z,26.38
2022-09-07T01:49:16.106Z,26.39
2022-09-07T01:51:47.319Z,26.40
2022-09-07T01:54:27.402Z,26.39
2022-09-07T01:57:00.735Z,26.39
2022-09-07T01:59:38.101Z,26.39
2022-09-07T02:02:14.385Z,26.39
2022-09-07T02:04:51.270Z,26.39
2022-09-07T02:07:33.937Z,26.38
2022-09-07T02:10:10.923Z,26.38
2022-09-07T02:12:53.185Z,26.38
2022-09-07T02:15:45.060Z,26.39
2022-09-07T02:18:16.342Z,26.39
2022-09-07T02:20:49.290Z,26.39
2022-09-07T02:23:25.337Z,26.38
2022-09-07T02:25:59.100Z,26.38
2022-09-07T02:28:38.454Z,26.38
2022-09-07T02:31:06.522Z,26.39
2022-09-07T02:33:34.302Z,26.37
2022-09-07T02:36:04.515Z,26.37
2022-09-07T02:38:33.163Z,26.36
2022-09-07T02:41:01.847Z,26.35
2022-09-07T02:43:30.856Z,26.33
2022-09-07T02:46:45.996Z,26.33
2022-09-07T02:49:52.414Z,26.32
2022-09-07T02:52:43.408Z,26.32
2022-09-07T02:55:22.779Z,26.31
2022-09-07T02:57:55.777Z,26.31
2022-09-07T03:00:26.307Z,26.30
2022-09-07T03:03:20.715Z,26.30
2022-09-07T03:05:51.795Z,26.30
2022-09-07T03:08:26.658Z,26.29
2022-09-07T03:10:54.626Z,26.29
2022-09-07T03:13:28.184Z,26.30
2022-09-07T03:15:56.634Z,26.29
2022-09-07T03:18:25.872Z,26.28
2022-09-07T03:20:54.213Z,26.29
2022-09-07T03:23:21.663Z,26.29
2022-09-07T03:25:49.235Z,26.29
2022-09-07T03:28:17.528Z,26.28
2022-09-07T03:30:47.420Z,26.28
2022-09-07T03:33:16.566Z,26.26
2022-09-07T03:35:56.740Z,26.25
2022-09-07T03:38:24.140Z,26.23
2022-09-07T03:41:02.220Z,26.24
2022-09-07T03:43:31.134Z,26.24
2022-09-07T03:46:00.850Z,26.24
2022-09-07T03:48:31.323Z,26.22
2022-09-07T03:51:03.655Z,26.24
2022-09-07T03:53:39.294Z,26.22
2022-09-07T03:56:12.087Z,26.21
2022-09-07T03:58:39.249Z,26.20
2022-09-07T04:01:09.347Z,26.19
2022-09-07T04:03:37.388Z,26.20
2022-09-07T04:06:04.966Z,26.20
2022-09-07T04:08:34.338Z,26.20
2022-09-07T04:11:04.743Z,26.21
2022-09-07T04:13:34.093Z,26.21
2022-09-07T04:16:10.250Z,26.20
2022-09-07T04:18:37.844Z,26.19
2022-09-07T04:21:05.288Z,26.20
2022-09-07T04:23:32.720Z,26.20
2022-09-07T04:25:59.972Z,26.19
2022-09-07T04:28:27.340Z,26.20
2022-09-07T04:30:54.737Z,26.20
2022-09-07T04:33:22.117Z,26.19
2022-09-07T04:35:49.380Z,26.18
2022-09-07T04:38:16.976Z,26.18
2022-09-07T04:40:44.317Z,26.19
2022-09-07T04:43:13.196Z,26.20
2022-09-07T04:45:40.601Z,26.19
2022-09-07T04:48:07.994Z,26.18
2022-09-07T04:50:35.374Z,26.18
2022-09-07T04:53:02.666Z,26.18
2022-09-07T04:55:29.995Z,26.17
2022-09-07T04:57:57.262Z,26.17
2022-09-07T05:00:24.620Z,26.16
2022-09-07T05:02:51.886Z,26.17
2022-09-07T05:05:19.187Z,26.14
2022-09-07T05:07:46.644Z,26.15
2022-09-07T05:10:13.893Z,26.14
2022-09-07T05:12:41.181Z,26.13
2022-09-07T05:15:08.808Z,26.12
2022-09-07T05:18:13.850Z,26.11
2022-09-07T05:20:41.867Z,26.11
2022-09-07T05:23:09.177Z,26.09
2022-09-07T05:25:43.350Z,26.09
2022-09-07T05:28:13.843Z,26.08
2022-09-07T05:36:18.909Z,26.10
2022-09-07T05:38:47.125Z,26.10
2022-09-07T05:41:17.319Z,26.11
2022-09-07T05:46:33.727Z,26.11
2022-09-07T05:49:03.175Z,26.11
2022-09-07T05:51:30.421Z,26.11
2022-09-07T05:53:57.752Z,26.11
2022-09-07T05:56:25.074Z,26.12
2022-09-07T05:58:52.294Z,26.11
2022-09-07T06:01:19.821Z,26.12
2022-09-07T06:03:47.184Z,26.12
2022-09-07T06:06:17.022Z,26.12
2022-09-07T06:08:47.099Z,26.13
2022-09-07T06:11:17.608Z,26.13
2022-09-07T06:13:44.962Z,26.15
2022-09-07T06:16:13.408Z,26.15
2022-09-07T06:18:46.174Z,26.16
2022-09-07T06:21:20.443Z,26.17
2022-09-07T06:23:48.771Z,26.17
2022-09-07T06:26:18.242Z,26.20
2022-09-07T06:28:49.853Z,26.20
2022-09-07T06:31:19.436Z,26.21
2022-09-07T06:33:49.876Z,26.23
2022-09-07T06:36:19.593Z,26.23
2022-09-07T06:38:47.874Z,26.25
2022-09-07T06:44:12.312Z,26.27
2022-09-07T06:49:27.063Z,26.27
2022-09-07T06:51:55.025Z,26.27
2022-09-07T06:57:09.911Z,26.29
2022-09-07T06:59:38.364Z,26.28
2022-09-07T07:02:06.412Z,26.28
2022-09-07T07:04:39.579Z,26.30
2022-09-07T07:07:12.614Z,26.29
2022-09-07T07:09:41.052Z,26.30
2022-09-07T07:12:09.031Z,26.30
2022-09-07T07:14:39.784Z,26.31
2022-09-07T07:17:10.380Z,26.31
2022-09-07T07:19:37.717Z,26.32
2022-09-07T07:22:18.790Z,26.32
2022-09-07T07:24:52.228Z,26.33
2022-09-07T07:27:21.629Z,26.32
2022-09-07T07:29:49.584Z,26.33
2022-09-07T07:32:16.831Z,26.33
2022-09-07T07:34:44.069Z,26.33
2022-09-07T07:37:11.339Z,26.35
2022-09-07T07:42:26.486Z,26.34
2022-09-07T07:47:42.603Z,26.36
2022-09-07T07:55:45.410Z,26.37
2022-09-07T07:58:12.974Z,26.37
2022-09-07T08:00:56.674Z,26.37
2022-09-07T08:03:25.512Z,26.38
2022-09-07T08:05:53.805Z,26.37
2022-09-07T08:08:23.145Z,26.38
2022-09-07T08:10:50.808Z,26.40
2022-09-07T08:13:19.246Z,26.38
2022-09-07T08:15:46.900Z,26.40
2022-09-07T08:18:16.005Z,26.39
2022-09-07T08:20:43.354Z,26.41
2022-09-07T08:23:11.881Z,26.41
2022-09-07T08:25:48.593Z,26.42
2022-09-07T08:28:16.090Z,26.41
2022-09-07T08:30:43.796Z,26.41
2022-09-07T08:33:11.069Z,26.42
2022-09-07T08:35:38.327Z,26.43
2022-09-07T08:38:06.009Z,26.43
2022-09-07T08:40:37.149Z,26.43
2022-09-07T08:43:36.568Z,26.44
2022-09-07T08:46:31.365Z,26.44
2022-09-07T08:49:01.294Z,26.44
2022-09-07T08:51:42.051Z,26.44
2022-09-07T08:54:13.655Z,26.45
2022-09-07T08:59:51.701Z,26.46
2022-09-07T09:02:42.004Z,26.45
2022-09-07T09:05:32.450Z,26.46
2022-09-07T09:07:59.795Z,26.46
2022-09-07T09:10:33.500Z,26.46
2022-09-07T09:13:09.662Z,26.46
2022-09-07T09:15:46.035Z,26.45
2022-09-07T09:18:40.635Z,26.44
2022-09-07T09:21:15.035Z,26.44
2022-09-07T09:23:44.925Z,26.44
2022-09-07T09:26:22.692Z,26.46
2022-09-07T09:28:50.209Z,26.44
2022-09-07T09:31:19.328Z,26.46
2022-09-07T09:34:04.995Z,26.45
2022-09-07T09:36:35.175Z,26.46
2022-09-07T09:39:24.734Z,26.45
2022-09-07T09:41:54.323Z,26.45
2022-09-07T09:44:22.839Z,26.45
2022-09-07T09:49:45.000Z,26.46
2022-09-07T09:52:29.626Z,26.48
2022-09-07T09:55:17.148Z,26.46
2022-09-07T10:06:20.242Z,26.42
2022-09-07T10:09:02.074Z,26.42
2022-09-07T10:12:07.992Z,26.40
2022-09-07T10:14:47.152Z,26.40
2022-09-07T10:17:35.287Z,26.39
2022-09-07T10:20:22.917Z,26.38
2022-09-07T10:22:52.951Z,26.39
2022-09-07T10:25:40.477Z,26.38
2022-09-07T10:28:12.623Z,26.38
2022-09-07T10:31:04.734Z,26.39
2022-09-07T10:36:50.073Z,26.39
2022-09-07T10:39:20.279Z,26.39
2022-09-07T10:42:05.233Z,26.39
2022-09-07T10:44:57.019Z,26.39
2022-09-07T10:47:43.611Z,26.39
2022-09-07T10:50:23.152Z,26.42
2022-09-07T10:52:53.401Z,26.41
2022-09-07T10:55:32.925Z,26.43
2022-09-07T10:59:01.584Z,26.41
2022-09-07T11:01:16.211Z,26.42
2022-09-07T11:04:20.786Z,26.41
2022-09-07T11:06:58.735Z,26.41
2022-09-07T11:09:34.548Z,26.39
2022-09-07T11:12:27.978Z,26.40
2022-09-07T11:15:33.101Z,26.41
2022-09-07T11:18:14.005Z,26.42
2022-09-07T11:21:03.684Z,26.43
2022-09-07T11:23:43.433Z,26.43
2022-09-07T11:26:14.730Z,26.44
2022-09-07T11:31:51.646Z,26.44
2022-09-07T11:34:52.024Z,26.44
2022-09-07T11:37:19.612Z,26.44
2022-09-07T11:39:58.016Z,26.43
2022-09-07T11:42:44.713Z,26.44
2022-09-07T11:45:14.656Z,26.45
2022-09-07T11:48:07.861Z,26.45
2022-09-07T11:50:36.908Z,26.45
2022-09-07T11:53:09.186Z,26.45
2022-09-07T11:55:44.260Z,26.44
2022-09-07T11:58:33.337Z,26.43
2022-09-07T12:01:27.865Z,26.43
2022-09-07T12:04:16.720Z,26.42
2022-09-07T12:07:08.733Z,26.42
2022-09-07T12:10:16.532Z,26.43
2022-09-07T12:13:04.867Z,26.41
2022-09-07T12:16:00.347Z,26.42
2022-09-07T12:19:10.149Z,26.43
2022-09-07T12:21:46.186Z,26.42
2022-09-07T12:24:32.412Z,26.44
2022-09-07T12:27:13.121Z,26.45
2022-09-07T12:29:45.152Z,26.46
2022-09-07T12:35:01.039Z,26.47
2022-09-07T12:37:40.408Z,26.47
2022-09-07T12:40:29.715Z,26.46
2022-09-07T12:43:15.339Z,26.45
2022-09-07T12:45:42.602Z,26.46
2022-09-07T12:48:16.038Z,26.46
2022-09-07T12:54:29.333Z,26.46
2022-09-07T12:57:30.706Z,26.46
2022-09-07T13:00:23.415Z,26.46
2022-09-07T13:03:56.883Z,26.45
2022-09-07T13:07:02.914Z,26.46
2022-09-07T13:09:32.507Z,26.45
2022-09-07T13:12:04.699Z,26.47
2022-09-07T13:14:37.068Z,26.46
2022-09-07T13:17:41.564Z,26.47
2022-09-07T13:20:21.638Z,26.47
2022-09-07T13:22:48.873Z,26.47
2022-09-07T13:25:20.271Z,26.49
2022-09-07T13:27:55.681Z,26.46
2022-09-07T13:30:25.942Z,26.48
2022-09-07T13:33:24.919Z,26.48
2022-09-07T13:35:55.212Z,26.49
2022-09-07T13:38:23.311Z,26.49
2022-09-07T13:40:52.394Z,26.51
2022-09-07T13:43:23.159Z,26.52
2022-09-07T13:45:53.473Z,26.52
2022-09-07T13:48:40.913Z,26.53
2022-09-07T13:51:23.947Z,26.54
2022-09-07T13:54:12.976Z,26.53
2022-09-07T13:57:09.505Z,26.55
2022-09-07T13:59:37.586Z,26.54
2022-09-07T14:02:22.284Z,26.55
2022-09-07T14:04:51.963Z,26.55
2022-09-07T14:07:25.078Z,26.56
2022-09-07T14:10:29.172Z,26.55
2022-09-07T14:13:11.684Z,26.54
2022-09-07T14:15:42.614Z,26.56
2022-09-07T14:18:14.035Z,26.55
2022-09-07T14:20:49.550Z,26.56
2022-09-07T14:23:23.907Z,26.56
2022-09-07T14:26:17.021Z,26.56
2022-09-07T14:28:47.202Z,26.57
2022-09-07T14:31:17.848Z,26.58
2022-09-07T14:33:55.182Z,26.58
2022-09-07T14:36:45.271Z,26.59
2022-09-07T14:39:15.968Z,26.58
2022-09-07T14:41:44.334Z,26.58
2022-09-07T14:44:30.461Z,26.59
2022-09-07T14:47:01.325Z,26.59
2022-09-07T14:49:28.870Z,26.59
2022-09-07T14:51:57.073Z,26.60
2022-09-07T14:54:34.903Z,26.61
2022-09-07T14:57:27.664Z,26.61
2022-09-07T14:59:57.204Z,26.63
2022-09-07T15:02:32.840Z,26.63
2022-09-07T15:05:15.451Z,26.64
2022-09-07T15:07:47.141Z,26.65
2022-09-07T15:10:23.850Z,26.65
2022-09-07T15:12:57.104Z,26.67
2022-09-07T15:15:26.187Z,26.66
2022-09-07T15:17:59.040Z,26.66
2022-09-07T15:20:35.027Z,26.67
2022-09-07T15:23:05.674Z,26.68
2022-09-07T15:25:34.496Z,26.69
2022-09-07T15:28:02.070Z,26.69
2022-09-07T15:33:44.492Z,26.72
2022-09-07T15:36:14.042Z,26.73
2022-09-07T15:41:29.407Z,26.76
2022-09-07T15:43:57.574Z,26.80
2022-09-07T15:46:25.953Z,26.82
2022-09-07T15:48:58.504Z,26.84
2022-09-07T15:54:14.857Z,26.87
2022-09-07T15:57:47.684Z,26.86
2022-09-07T15:59:31.445Z,26.85
2022-09-07T16:01:59.328Z,26.85
2022-09-07T16:04:27.062Z,26.85
2022-09-07T16:06:54.770Z,26.86
2022-09-07T16:09:22.265Z,26.85
2022-09-07T16:11:51.209Z,26.85
2022-09-07T16:14:18.848Z,26.84
2022-09-07T16:19:40.664Z,26.84
2022-09-07T16:22:09.020Z,26.85
2022-09-07T16:24:36.473Z,26.84
2022-09-07T16:27:03.715Z,26.83
2022-09-07T16:29:31.065Z,26.83
2022-09-07T16:34:45.696Z,26.85
2022-09-07T16:37:13.124Z,26.84
2022-09-07T16:39:40.432Z,26.85
2022-09-07T16:42:08.863Z,26.86
2022-09-07T16:44:36.199Z,26.86
2022-09-07T16:47:04.376Z,26.86
2022-09-07T16:49:31.737Z,26.86
2022-09-07T16:51:59.188Z,26.86
2022-09-07T16:54:26.541Z,26.87
2022-09-07T16:56:53.795Z,26.87
2022-09-07T16:59:26.184Z,26.87
2022-09-07T17:01:53.655Z,26.86
2022-09-07T17:04:21.113Z,26.86
2022-09-07T17:06:48.616Z,26.85
2022-09-07T17:09:15.905Z,26.85
2022-09-07T17:11:43.127Z,26.86
2022-09-07T17:14:10.373Z,26.87
2022-09-07T17:16:39.731Z,26.86
2022-09-07T17:21:59.766Z,26.84
2022-09-07T17:24:27.179Z,26.84
2022-09-07T17:26:54.616Z,26.85
2022-09-07T17:29:25.142Z,26.83
2022-09-07T17:34:39.772Z,26.77
2022-09-07T17:37:09.103Z,26.68
2022-09-07T17:39:38.706Z,26.70
2022-09-07T17:42:06.219Z,26.70
2022-09-07T17:44:38.034Z,26.71
2022-09-07T17:47:06.127Z,26.71
2022-09-07T17:49:33.791Z,26.69
2022-09-07T17:52:01.696Z,26.69
2022-09-07T17:54:28.952Z,26.66
2022-09-07T17:56:56.659Z,26.66
2022-09-07T18:02:13.799Z,26.66
2022-09-07T18:04:41.326Z,26.65
2022-09-07T18:07:08.616Z,26.65
2022-09-07T18:09:35.916Z,26.64
2022-09-07T18:12:03.755Z,26.62
2022-09-07T18:14:31.285Z,26.60
2022-09-07T18:16:58.473Z,26.60
2022-09-07T18:19:25.935Z,26.59
2022-09-07T18:21:53.325Z,26.61
2022-09-07T18:24:25.975Z,26.61
2022-09-07T18:26:54.037Z,26.62
2022-09-07T18:29:29.994Z,26.62
2022-09-07T18:32:01.509Z,26.62
2022-09-07T18:34:29.304Z,26.61
2022-09-07T18:36:58.231Z,26.62
2022-09-07T18:39:29.335Z,26.60
2022-09-07T18:41:59.305Z,26.59
2022-09-07T18:47:28.796Z,26.59
2022-09-07T18:50:06.144Z,26.54
2022-09-07T18:52:52.780Z,26.48
2022-09-07T18:55:20.585Z,26.48
2022-09-07T18:57:49.057Z,26.50
2022-09-07T19:00:17.926Z,26.50
2022-09-07T19:02:54.925Z,26.52
2022-09-07T19:08:16.340Z,26.52
2022-09-07T19:10:46.572Z,26.53
2022-09-07T19:13:17.520Z,26.53
2022-09-07T19:15:45.017Z,26.53
2022-09-07T19:18:12.336Z,26.55
2022-09-07T19:20:42.340Z,26.53
2022-09-07T19:23:12.587Z,26.52
2022-09-07T19:25:45.169Z,26.50
2022-09-07T19:28:15.944Z,26.47
2022-09-07T19:30:46.260Z,26.47
2022-09-07T19:33:13.776Z,26.47
2022-09-07T19:35:44.747Z,26.48
2022-09-07T19:38:15.039Z,26.49
2022-09-07T19:40:42.535Z,26.50
2022-09-07T19:43:10.152Z,26.50
2022-09-07T19:45:39.509Z,26.47
2022-09-07T19:48:06.848Z,26.48
2022-09-07T19:50:40.004Z,26.49
2022-09-07T19:53:10.755Z,26.50
2022-09-07T19:55:42.718Z,26.50
2022-09-07T19:58:15.681Z,26.52
2022-09-07T20:00:45.396Z,26.50
2022-09-07T20:03:13.748Z,26.48
2022-09-07T20:05:41.464Z,26.48
2022-09-07T20:08:09.141Z,26.47
2022-09-07T20:10:39.766Z,26.48
2022-09-07T20:13:10.595Z,26.49
2022-09-07T20:15:42.542Z,26.50
2022-09-07T20:18:12.926Z,26.50
2022-09-07T20:20:40.445Z,26.49
2022-09-07T20:23:08.646Z,26.50
2022-09-07T20:25:37.187Z,26.48
2022-09-07T20:28:06.938Z,26.49
2022-09-07T20:30:43.044Z,26.50
2022-09-07T20:33:13.062Z,26.49
2022-09-07T20:35:43.624Z,26.49
2022-09-07T20:38:13.659Z,26.50
2022-09-07T20:40:53.858Z,26.51
2022-09-07T20:43:21.635Z,26.51
2022-09-07T20:45:49.174Z,26.51
2022-09-07T20:48:16.781Z,26.51
2022-09-07T20:50:44.050Z,26.52
2022-09-07T20:53:11.318Z,26.52
2022-09-07T20:55:38.558Z,26.51
2022-09-07T20:58:06.102Z,26.50
2022-09-07T21:00:33.531Z,26.49
2022-09-07T21:03:00.781Z,26.48
2022-09-07T21:05:28.100Z,26.46
2022-09-07T21:07:55.896Z,26.47
2022-09-07T21:10:24.103Z,26.47
2022-09-07T21:12:53.265Z,26.47
2022-09-07T21:15:20.606Z,26.49
2022-09-07T21:17:48.295Z,26.49
2022-09-07T21:20:15.865Z,26.49
2022-09-07T21:22:43.110Z,26.50
2022-09-07T21:25:10.715Z,26.49
2022-09-07T21:27:38.822Z,26.50
2022-09-07T21:30:07.573Z,26.46
2022-09-07T21:32:34.879Z,26.45
2022-09-07T21:35:02.574Z,26.44
2022-09-07T21:37:29.843Z,26.43
2022-09-07T21:39:57.995Z,26.42
2022-09-07T21:42:25.297Z,26.42
2022-09-07T21:44:52.653Z,26.42
2022-09-07T21:47:19.927Z,26.41
2022-09-07T21:49:47.191Z,26.41
2022-09-07T21:52:14.395Z,26.41
2022-09-07T21:54:42.273Z,26.38
2022-09-07T21:57:09.560Z,26.36
2022-09-07T21:59:37.162Z,26.36
2022-09-07T22:02:04.486Z,26.36
2022-09-07T22:04:31.976Z,26.37
2022-09-07T22:06:59.182Z,26.38
2022-09-07T22:09:26.474Z,26.38
2022-09-07T22:11:53.837Z,26.39
2022-09-07T22:14:21.102Z,26.40
2022-09-07T22:16:48.368Z,26.40
2022-09-07T22:19:15.578Z,26.40
2022-09-07T22:21:42.815Z,26.38
2022-09-07T22:24:11.706Z,26.39
2022-09-07T22:26:39.179Z,26.39
2022-09-07T22:29:08.114Z,26.38
2022-09-07T22:31:37.526Z,26.38
2022-09-07T22:34:08.169Z,26.39
2022-09-07T22:36:38.681Z,26.42
2022-09-07T22:39:10.052Z,26.43
2022-09-07T22:41:38.953Z,26.45
2022-09-07T22:44:10.195Z,26.47
2022-09-07T22:46:39.735Z,26.48
2022-09-07T22:49:07.870Z,26.49
2022-09-07T22:51:35.382Z,26.50
2022-09-07T22:54:02.914Z,26.50
2022-09-07T22:56:32.613Z,26.50
2022-09-07T22:59:03.411Z,26.51
2022-09-07T23:01:31.880Z,26.52
2022-09-07T23:04:00.191Z,26.52
2022-09-07T23:06:36.638Z,26.52
2022-09-07T23:09:08.046Z,26.52
2022-09-07T23:11:35.611Z,26.51
2022-09-07T23:14:06.008Z,26.52
2022-09-07T23:16:33.926Z,26.52
2022-09-07T23:19:01.399Z,26.52
2022-09-07T23:21:31.624Z,26.53
2022-09-07T23:24:00.193Z,26.53
2022-09-07T23:26:30.254Z,26.53
2022-09-07T23:29:01.058Z,26.53
2022-09-07T23:31:30.125Z,26.53
2022-09-07T23:33:57.917Z,26.54
2022-09-07T23:36:28.755Z,26.53
2022-09-07T23:38:58.037Z,26.54
2022-09-07T23:41:26.400Z,26.53
2022-09-07T23:43:54.603Z,26.54
2022-09-07T23:46:22.025Z,26.54
2022-09-07T23:48:50.687Z,26.53
2022-09-07T23:51:23.421Z,26.54
2022-09-07T23:53:51.832Z,26.54
2022-09-07T23:56:19.289Z,26.55
2022-09-07T23:58:46.546Z,26.54
